Time;durP1;ratioP1;P1;durP2;ratioP2;P2;SDS_P1;SDS_P2;PMS_P1;PMS_P2;Temp;Humidity;BMP_temperature;BMP_pressure;BME280_temperature;BME280_humidity;BME280_pressure;Samples;Min_cycle;Max_cycle;Signal;HPM_P1;HPM_P2
2021/12/13 00:01:10;;;;;;;10.63;10.05;;;12.00;83.50;;;;;;5049443;28;20033;-80
2021/12/13 00:03:54;;;;;;;10.60;10.10;;;12.10;83.50;;;;;;5049808;28;20028;-80
2021/12/13 00:06:35;;;;;;;10.07;9.57;;;12.10;83.50;;;;;;5032220;28;20037;-80
2021/12/13 00:09:06;;;;;;;10.50;10.00;;;12.00;83.40;;;;;;5048465;28;20027;-80
2021/12/13 00:11:34;;;;;;;10.20;9.70;;;12.10;84.20;;;;;;5033154;28;20025;-80
2021/12/13 00:14:06;;;;;;;9.20;8.77;;;12.00;83.40;;;;;;5048585;28;20028;-80
2021/12/13 00:16:35;;;;;;;8.65;8.25;;;12.00;83.50;;;;;;5049697;28;20592;-80
2021/12/13 00:19:07;;;;;;;8.70;8.20;;;12.10;83.50;;;;;;5031721;28;20049;-80
2021/12/13 00:21:38;;;;;;;8.80;8.40;;;12.10;83.50;;;;;;5059211;28;20037;-80
2021/12/13 00:24:08;;;;;;;8.30;7.90;;;12.00;83.40;;;;;;5048131;28;20028;-80
2021/12/13 00:26:45;;;;;;;8.40;8.00;;;12.00;83.40;;;;;;5048411;28;20056;-80
2021/12/13 00:29:17;;;;;;;8.57;8.18;;;12.00;83.40;;;;;;5051914;28;20382;-80
2021/12/13 00:32:02;;;;;;;8.30;7.90;;;12.00;84.20;;;;;;5032784;28;20041;-80
2021/12/13 00:34:33;;;;;;;8.30;7.85;;;12.00;83.50;;;;;;5051102;28;20501;-80
2021/12/13 00:37:18;;;;;;;8.30;7.90;;;12.00;83.40;;;;;;5049668;28;20386;-80
2021/12/13 00:40:06;;;;;;;8.15;7.65;;;12.00;83.50;;;;;;5034373;28;20045;-80
2021/12/13 00:42:36;;;;;;;8.50;7.70;;;12.00;83.50;;;;;;5048500;28;20029;-80
2021/12/13 00:45:06;;;;;;;8.85;8.10;;;12.00;83.50;;;;;;5049667;28;20406;-81
2021/12/13 00:47:33;;;;;;;8.70;8.10;;;12.00;83.40;;;;;;5048402;28;20045;-80
2021/12/13 00:50:12;;;;;;;8.05;7.65;;;12.00;83.40;;;;;;5031505;28;20029;-80
2021/12/13 00:52:39;;;;;;;7.65;7.25;;;12.00;83.40;;;;;;5050871;28;20035;-80
2021/12/13 00:55:21;;;;;;;7.95;7.45;;;12.00;83.40;;;;;;5048155;28;20029;-80
2021/12/13 00:57:50;;;;;;;;;;;12.00;83.40;;;;;;5044575;28;20037;-80
2021/12/13 01:00:26;;;;;;;7.38;7.07;;;12.00;83.40;;;;;;5048612;28;19916;-80
2021/12/13 01:02:59;;;;;;;8.20;7.72;;;12.00;83.30;;;;;;5048760;28;20389;-80
2021/12/13 01:05:35;;;;;;;7.55;7.15;;;12.00;83.30;;;;;;5032203;28;20064;-80
2021/12/13 01:08:15;;;;;;;7.45;7.15;;;11.90;83.30;;;;;;5047387;28;20037;-80
2021/12/13 01:10:53;;;;;;;8.60;8.10;;;11.90;84.10;;;;;;5049373;28;20493;-80
2021/12/13 01:13:21;;;;;;;7.13;6.82;;;11.80;83.40;;;;;;5048101;28;20033;-80
2021/12/13 01:16:30;;;;;;;7.40;7.10;;;11.80;83.40;;;;;;5048751;28;20056;-80
2021/12/13 01:27:43;;;;;;;7.88;7.47;;;11.70;84.20;;;;;;5049669;28;20481;-80
2021/12/13 01:30:12;;;;;;;7.90;7.50;;;11.70;83.50;;;;;;5031365;28;20526;-81
2021/12/13 01:32:41;;;;;;;7.30;7.00;;;11.70;83.50;;;;;;5033412;28;20032;-80
2021/12/13 01:35:12;;;;;;;7.65;7.32;;;11.70;83.50;;;;;;5050007;28;20021;-80
2021/12/13 01:37:38;;;;;;;7.60;7.20;;;11.70;83.50;;;;;;5034743;28;20040;-80
2021/12/13 01:40:10;;;;;;;6.70;6.40;;;11.70;83.60;;;;;;5047740;28;20032;-80
2021/12/13 01:42:36;;;;;;;7.50;7.10;;;11.60;83.60;;;;;;5046760;28;20021;-80
2021/12/13 01:45:12;;;;;;;7.40;7.05;;;11.60;83.60;;;;;;5047406;28;20029;-80
2021/12/13 01:47:41;;;;;;;7.93;7.53;;;11.60;83.60;;;;;;5048819;28;20045;-80
2021/12/13 01:50:10;;;;;;;7.70;7.20;;;11.60;83.50;;;;;;5050052;28;20032;-80
2021/12/13 01:52:37;;;;;;;7.13;6.82;;;11.60;83.60;;;;;;5051408;28;20036;-80
2021/12/13 01:55:16;;;;;;;7.50;7.20;;;11.60;83.60;;;;;;5046077;28;20036;-80
2021/12/13 01:57:55;;;;;;;7.85;7.45;;;11.70;83.50;;;;;;5030483;28;20493;-80
2021/12/13 02:01:08;;;;;;;8.05;7.65;;;11.70;83.50;;;;;;5045612;28;20040;-80
2021/12/13 02:03:21;;;;;;;7.03;6.72;;;11.60;83.40;;;;;;5039580;28;20041;-80
2021/12/13 02:05:48;;;;;;;7.05;6.75;;;11.60;83.40;;;;;;5033221;28;20049;-80
2021/12/13 02:08:16;;;;;;;7.13;6.72;;;11.60;83.40;;;;;;5049540;28;20037;-80
2021/12/13 02:10:48;;;;;;;7.63;6.93;;;11.60;83.40;;;;;;5047899;28;20021;-80
2021/12/13 02:13:22;;;;;;;7.80;7.20;;;11.60;83.50;;;;;;5049659;28;20040;-80
2021/12/13 02:18:37;;;;;;;7.30;6.93;;;11.60;83.50;;;;;;5047926;28;20040;-80
2021/12/13 02:21:29;;;;;;;7.60;7.20;;;11.60;84.30;;;;;;5029207;28;20048;-80
2021/12/13 02:24:02;;;;;;;7.22;6.93;;;11.60;84.40;;;;;;5043450;28;20033;-80
2021/12/13 02:26:28;;;;;;;7.00;6.70;;;11.50;83.60;;;;;;5047463;28;20037;-80
2021/12/13 02:29:07;;;;;;;7.85;7.30;;;11.50;83.50;;;;;;5067216;28;20037;-80
2021/12/13 02:31:35;;;;;;;10.98;7.13;;;11.50;83.50;;;;;;5046979;28;20037;-80
2021/12/13 02:34:05;;;;;;;7.82;7.43;;;11.50;83.60;;;;;;5043750;28;20032;-80
2021/12/13 02:36:40;;;;;;;7.30;7.00;;;11.50;83.70;;;;;;5046972;28;20032;-80
2021/12/13 02:39:13;;;;;;;7.30;7.00;;;11.50;83.70;;;;;;5047083;28;20135;-80
2021/12/13 02:41:39;;;;;;;7.38;7.07;;;11.40;83.60;;;;;;5048615;28;20029;-80
2021/12/13 02:44:10;;;;;;;7.15;6.75;;;11.40;83.60;;;;;;5049146;28;20320;-80
2021/12/13 02:46:36;;;;;;;7.55;7.10;;;11.40;83.60;;;;;;5048395;28;20033;-80
2021/12/13 02:49:05;;;;;;;7.70;7.30;;;11.40;83.50;;;;;;5049371;28;20052;-80
2021/12/13 02:51:40;;;;;;;7.25;6.95;;;11.40;83.60;;;;;;5048026;28;20017;-80
2021/12/13 02:54:22;;;;;;;6.70;6.40;;;11.40;83.60;;;;;;5046133;28;20025;-80
2021/12/13 02:56:53;;;;;;;6.93;6.63;;;11.40;83.60;;;;;;5049187;28;20044;-80
2021/12/13 02:59:21;;;;;;;6.65;6.35;;;11.40;83.60;;;;;;5032101;28;20045;-80
2021/12/13 03:02:08;;;;;;;6.95;6.65;;;11.40;83.60;;;;;;5032330;28;20371;-80
2021/12/13 03:04:34;;;;;;;6.90;6.60;;;11.30;83.60;;;;;;5044638;28;20028;-80
2021/12/13 03:07:07;;;;;;;7.13;6.80;;;11.40;83.60;;;;;;5025731;28;20033;-80
2021/12/13 03:09:34;;;;;;;6.90;6.60;;;11.30;83.50;;;;;;5035835;28;20044;-80
2021/12/13 03:12:03;;;;;;;6.60;6.30;;;11.30;83.50;;;;;;5037297;28;20470;-80
2021/12/13 03:14:31;;;;;;;7.00;6.70;;;11.30;83.60;;;;;;5033590;28;20474;-80
2021/12/13 03:17:10;;;;;;;6.70;6.40;;;11.20;83.50;;;;;;5056377;28;20041;-80
2021/12/13 03:19:42;;;;;;;6.65;6.35;;;11.20;83.60;;;;;;5051572;28;20049;-80
2021/12/13 03:22:32;;;;;;;7.00;6.60;;;11.20;83.60;;;;;;5051736;28;20116;-80
2021/12/13 03:25:40;;;;;;;7.30;7.00;;;11.20;83.70;;;;;;5055380;28;20036;-80
2021/12/13 03:28:37;;;;;;;6.47;6.18;;;11.20;83.70;;;;;;5050301;28;20040;-80
2021/12/13 03:31:05;;;;;;;6.82;6.53;;;11.10;83.60;;;;;;5052805;28;20025;-79
2021/12/13 03:33:51;;;;;;;7.20;6.90;;;11.10;83.60;;;;;;5038603;28;20041;-79
2021/12/13 03:36:24;;;;;;;7.05;6.75;;;11.10;83.60;;;;;;5033356;28;20044;-80
2021/12/13 03:38:51;;;;;;;7.05;6.75;;;11.10;83.60;;;;;;5034572;28;20044;-80
2021/12/13 03:41:20;;;;;;;6.93;6.63;;;11.10;83.50;;;;;;5050704;28;20120;-80
2021/12/13 03:43:54;;;;;;;7.00;6.70;;;11.20;83.50;;;;;;5053703;28;20036;-80
2021/12/13 03:46:21;;;;;;;7.40;7.10;;;11.20;83.50;;;;;;5047760;28;20044;-80
2021/12/13 03:48:48;;;;;;;7.07;6.78;;;11.20;83.50;;;;;;5036723;28;20414;-80
2021/12/13 03:51:16;;;;;;;7.35;7.00;;;11.20;83.50;;;;;;5032696;28;20049;-80
2021/12/13 03:53:44;;;;;;;7.05;6.75;;;11.20;83.40;;;;;;5050825;28;20033;-80
2021/12/13 03:56:19;;;;;;;7.13;6.82;;;11.30;83.50;;;;;;5051841;28;20391;-79
2021/12/13 03:58:47;;;;;;;6.50;6.20;;;11.30;83.40;;;;;;5051763;28;20048;-80
2021/12/13 04:01:23;;;;;;;6.82;6.53;;;11.30;83.40;;;;;;5048622;28;20033;-79
2021/12/13 04:03:51;;;;;;;7.18;6.85;;;11.30;83.40;;;;;;5034994;28;20036;-79
2021/12/13 04:06:17;;;;;;;6.30;6.00;;;11.30;83.40;;;;;;5050243;28;20044;-80
2021/12/13 04:08:44;;;;;;;6.50;6.20;;;11.30;83.40;;;;;;5049765;28;20025;-79
2021/12/13 04:11:11;;;;;;;6.70;6.40;;;11.20;83.30;;;;;;5051165;28;20029;-80
2021/12/13 04:13:48;;;;;;;7.15;6.65;;;11.20;83.40;;;;;;5033847;28;20041;-80
2021/12/13 04:16:45;;;;;;;6.32;6.03;;;11.20;83.40;;;;;;5050194;28;20041;-79
2021/12/13 04:19:13;;;;;;;7.75;7.15;;;11.20;83.40;;;;;;5050539;28;20040;-79
2021/12/13 04:21:51;;;;;;;6.50;6.20;;;11.20;83.50;;;;;;5035400;28;20044;-80
2021/12/13 04:24:26;;;;;;;6.40;6.10;;;11.20;83.50;;;;;;5064970;28;20036;-79
2021/12/13 04:26:54;;;;;;;6.82;6.53;;;11.10;83.40;;;;;;5049631;28;20037;-79
2021/12/13 04:29:33;;;;;;;7.03;6.72;;;11.10;83.40;;;;;;5034298;28;20405;-81
2021/12/13 04:32:11;;;;;;;7.00;6.70;;;11.10;83.40;;;;;;5047890;28;20489;-80
2021/12/13 04:34:41;;;;;;;6.80;6.50;;;11.10;83.40;;;;;;5034895;28;20044;-81
2021/12/13 04:37:10;;;;;;;6.70;6.40;;;11.10;83.40;;;;;;5034119;28;20045;-80
2021/12/13 04:39:36;;;;;;;6.07;5.78;;;11.10;83.40;;;;;;5050046;28;20056;-81
2021/12/13 04:42:09;;;;;;;6.38;6.07;;;11.20;83.50;;;;;;5050623;28;20028;-81
2021/12/13 04:44:58;;;;;;;6.30;6.00;;;11.10;83.40;;;;;;5032781;28;20045;-80
2021/12/13 04:47:44;;;;;;;6.68;6.38;;;11.10;83.40;;;;;;5049916;28;20057;-80
2021/12/13 04:50:15;;;;;;;6.45;6.15;;;11.20;83.40;;;;;;5048615;28;20029;-80
2021/12/13 04:52:41;;;;;;;7.45;7.15;;;11.20;83.40;;;;;;5049121;28;20037;-80
2021/12/13 04:55:17;;;;;;;9.23;8.82;;;11.20;83.30;;;;;;5048731;28;20029;-80
2021/12/13 04:57:43;;;;;;;9.48;9.07;;;11.20;83.40;;;;;;5049913;28;20025;-81
2021/12/13 05:00:13;;;;;;;8.70;8.30;;;11.20;83.40;;;;;;5050293;28;20037;-80
2021/12/13 05:02:46;;;;;;;7.95;7.55;;;11.20;83.50;;;;;;5048724;28;20374;-80
2021/12/13 05:05:13;;;;;;;8.45;8.05;;;11.20;83.40;;;;;;5052093;28;20493;-80
2021/12/13 05:07:39;;;;;;;7.75;7.35;;;11.20;83.40;;;;;;5050958;28;20458;-80
2021/12/13 05:10:06;;;;;;;9.02;8.63;;;11.20;83.40;;;;;;5053706;28;20029;-80
2021/12/13 05:12:32;;;;;;;8.15;7.75;;;11.20;83.40;;;;;;5050884;28;20040;-80
2021/12/13 05:15:18;;;;;;;7.20;6.90;;;11.20;83.50;;;;;;5051396;28;20021;-80
2021/12/13 05:17:45;;;;;;;8.05;7.65;;;11.20;83.50;;;;;;5036049;28;20381;-80
2021/12/13 05:20:14;;;;;;;9.02;8.63;;;11.10;83.40;;;;;;5050894;28;20132;-80
2021/12/13 05:22:49;;;;;;;9.45;9.05;;;11.10;83.40;;;;;;5050996;28;20048;-81
2021/12/13 05:25:21;;;;;;;7.65;7.25;;;11.00;83.40;;;;;;5050618;28;20028;-80
2021/12/13 05:27:47;;;;;;;8.18;7.78;;;11.00;83.40;;;;;;5051773;28;20059;-80
2021/12/13 05:30:18;;;;;;;7.50;7.20;;;10.90;83.40;;;;;;5032363;28;20045;-81
2021/12/13 05:32:47;;;;;;;7.72;7.38;;;10.90;83.50;;;;;;5050501;28;20040;-80
2021/12/13 05:35:15;;;;;;;8.07;7.68;;;10.90;83.50;;;;;;5050679;28;20036;-81
2021/12/13 05:37:46;;;;;;;7.85;7.45;;;10.90;83.60;;;;;;5051145;28;20036;-80
2021/12/13 05:40:16;;;;;;;6.95;6.65;;;10.90;83.50;;;;;;5050695;28;20044;-80
2021/12/13 05:42:53;;;;;;;8.05;7.65;;;10.90;83.50;;;;;;5033415;28;20036;-80
2021/12/13 05:45:35;;;;;;;7.10;6.80;;;10.80;83.60;;;;;;5033258;28;20420;-80
2021/12/13 05:48:10;;;;;;;6.47;6.18;;;10.80;83.60;;;;;;5039215;28;20036;-80
2021/12/13 05:50:47;;;;;;;6.68;6.38;;;10.80;83.70;;;;;;5034395;28;20036;-80
2021/12/13 05:53:31;;;;;;;7.00;6.63;;;10.70;83.50;;;;;;5050298;28;20398;-80
2021/12/13 05:56:06;;;;;;;6.88;6.57;;;10.70;83.60;;;;;;5051985;28;20036;-80
2021/12/13 05:58:41;;;;;;;6.40;6.10;;;10.70;83.60;;;;;;5067054;28;20048;-80
2021/12/13 06:01:20;;;;;;;6.57;6.28;;;10.70;83.70;;;;;;5051327;28;20056;-80
2021/12/13 06:04:07;;;;;;;6.43;6.13;;;10.70;83.70;;;;;;5051614;28;20462;-80
2021/12/13 06:06:54;;;;;;;6.65;6.35;;;10.70;83.80;;;;;;5049995;28;20050;-80
2021/12/13 06:09:39;;;;;;;7.00;6.70;;;10.70;83.70;;;;;;5032750;28;20033;-80
2021/12/13 06:12:07;;;;;;;7.28;6.88;;;10.70;83.70;;;;;;5049599;28;20041;-80
2021/12/13 06:14:33;;;;;;;6.82;6.53;;;10.70;83.70;;;;;;5033888;28;20029;-80
2021/12/13 06:17:06;;;;;;;7.30;6.97;;;10.70;83.70;;;;;;5050462;28;20044;-80
2021/12/13 06:19:42;;;;;;;7.38;7.07;;;10.70;83.70;;;;;;5050575;28;20041;-80
2021/12/13 06:22:20;;;;;;;6.55;6.25;;;10.70;83.70;;;;;;5033941;28;20025;-81
2021/12/13 06:24:53;;;;;;;6.78;6.47;;;10.70;83.60;;;;;;5033974;28;20029;-80
2021/12/13 06:27:41;;;;;;;8.32;7.82;;;10.70;83.70;;;;;;5032916;28;20477;-79
2021/12/13 06:30:16;;;;;;;8.35;7.85;;;10.70;83.70;;;;;;5049286;28;20044;-80
2021/12/13 06:32:50;;;;;;;7.10;6.80;;;10.70;84.40;;;;;;5050191;28;20354;-79
2021/12/13 06:35:36;;;;;;;7.55;7.15;;;10.70;83.50;;;;;;5050210;28;20469;-80
2021/12/13 06:38:24;;;;;;;7.55;7.15;;;10.70;83.50;;;;;;5034599;28;20037;-80
2021/12/13 06:40:56;;;;;;;6.57;6.28;;;10.70;83.50;;;;;;5048554;28;20520;-81
2021/12/13 06:43:33;;;;;;;7.50;7.10;;;10.70;83.70;;;;;;5053839;28;20048;-81
2021/12/13 06:46:01;;;;;;;7.30;6.97;;;10.60;83.70;;;;;;5036281;28;20029;-82
2021/12/13 06:48:40;;;;;;;7.47;7.07;;;10.60;83.80;;;;;;5053655;28;20049;-81
2021/12/13 06:51:07;;;;;;;7.60;7.20;;;10.70;83.80;;;;;;5053692;28;20017;-80
2021/12/13 06:53:33;;;;;;;7.40;7.00;;;10.70;83.80;;;;;;5037761;28;20032;-81
2021/12/13 06:56:17;;;;;;;6.97;6.68;;;10.70;83.70;;;;;;5017633;28;20038;-81
2021/12/13 06:58:49;;;;;;;6.95;6.65;;;10.70;83.70;;;;;;5053418;28;20025;-80
2021/12/13 07:01:15;;;;;;;7.63;7.22;;;10.70;83.70;;;;;;5054323;28;20045;-80
2021/12/13 07:03:41;;;;;;;9.38;8.90;;;10.60;83.70;;;;;;5053875;28;20048;-80
2021/12/13 07:06:08;;;;;;;8.18;7.78;;;10.60;84.50;;;;;;5036214;28;20111;-80
2021/12/13 07:08:37;;;;;;;7.75;7.43;;;10.70;83.80;;;;;;5036264;28;20544;-81
2021/12/13 07:11:05;;;;;;;7.47;7.00;;;10.60;83.70;;;;;;5033564;28;20398;-82
2021/12/13 07:13:43;;;;;;;7.80;7.30;;;10.60;83.80;;;;;;5053773;28;20044;-82
2021/12/13 07:16:12;;;;;;;8.23;7.72;;;10.60;83.70;;;;;;5035780;28;20040;-79
2021/12/13 07:18:48;;;;;;;7.72;7.28;;;10.60;83.70;;;;;;5053171;28;20029;-81
2021/12/13 07:21:23;;;;;;;8.57;7.85;;;10.60;83.70;;;;;;5052766;28;20049;-81
2021/12/13 07:23:54;;;;;;;7.75;7.35;;;10.60;83.80;;;;;;5052610;28;20029;-80
2021/12/13 07:26:28;;;;;;;;;;;10.60;83.80;;;;;;5035451;28;20076;-82
2021/12/13 07:28:54;;;;;;;7.82;7.32;;;10.60;83.70;;;;;;5036830;28;20118;-83
2021/12/13 07:31:20;;;;;;;8.88;8.48;;;10.60;83.70;;;;;;5035389;28;20482;-82
2021/12/13 07:33:46;;;;;;;9.50;9.05;;;10.60;83.70;;;;;;5036121;28;20037;-79
2021/12/13 07:36:17;;;;;;;8.90;8.50;;;10.60;83.70;;;;;;5053207;28;20044;-80
2021/12/13 07:39:08;;;;;;;9.27;8.88;;;10.60;83.60;;;;;;5034962;28;20367;-80
2021/12/13 07:41:52;;;;;;;7.28;6.97;;;10.60;83.60;;;;;;5043932;28;20044;-82
2021/12/13 07:44:30;;;;;;;6.95;6.65;;;10.70;83.60;;;;;;5021688;28;20041;-82
2021/12/13 07:46:59;;;;;;;6.80;6.50;;;10.60;83.50;;;;;;5052929;28;20040;-80
2021/12/13 07:49:29;;;;;;;6.80;6.50;;;10.60;83.50;;;;;;5052987;28;20485;-79
2021/12/13 07:51:58;;;;;;;7.03;6.72;;;10.60;83.60;;;;;;5051464;28;20033;-79
2021/12/13 07:54:24;;;;;;;6.82;6.53;;;10.60;83.60;;;;;;5051885;28;20048;-79
2021/12/13 07:56:54;;;;;;;6.75;6.45;;;10.60;83.60;;;;;;5052428;28;20044;-79
2021/12/13 07:59:46;;;;;;;6.93;6.63;;;10.60;83.60;;;;;;5052568;28;20044;-78
2021/12/13 08:02:31;;;;;;;7.10;6.80;;;10.60;83.60;;;;;;5047239;28;20029;-83
2021/12/13 08:05:08;;;;;;;7.78;7.28;;;10.60;83.60;;;;;;5050995;28;20036;-84
2021/12/13 08:07:46;;;;;;;7.25;6.95;;;10.60;83.50;;;;;;5046229;28;20346;-85
2021/12/13 08:10:20;;;;;;;7.25;6.95;;;10.60;83.60;;;;;;5035074;28;20037;-84
2021/12/13 08:12:49;;;;;;;7.82;7.43;;;10.60;83.60;;;;;;5045242;28;20025;-81
2021/12/13 08:15:49;;;;;;;7.40;7.00;;;10.60;83.50;;;;;;5050412;28;20382;-82
2021/12/13 08:18:27;;;;;;;7.22;6.93;;;10.60;83.60;;;;;;4955776;28;20038;-81
2021/12/13 08:21:09;;;;;;;7.88;7.47;;;10.60;83.50;;;;;;4989446;28;20042;-86
2021/12/13 08:23:52;;;;;;;7.65;7.25;;;10.60;83.40;;;;;;4964311;28;20138;-85
2021/12/13 08:26:29;;;;;;;6.70;6.40;;;10.60;83.40;;;;;;4974252;28;20046;-84
2021/12/13 08:28:56;;;;;;;7.60;7.30;;;10.60;83.40;;;;;;4992297;28;20035;-83
2021/12/13 08:31:23;;;;;;;8.30;7.90;;;10.60;83.30;;;;;;4956538;28;20045;-84
2021/12/13 08:33:52;;;;;;;7.35;7.05;;;10.70;83.30;;;;;;4989093;28;20510;-84
2021/12/13 08:36:24;;;;;;;8.40;8.00;;;10.70;83.30;;;;;;4972456;28;20034;-84
2021/12/13 08:39:08;;;;;;;7.88;7.47;;;10.70;83.30;;;;;;4990542;28;20034;-83
2021/12/13 08:41:44;;;;;;;7.68;7.30;;;10.70;83.20;;;;;;4974537;28;20049;-84
2021/12/13 08:44:10;;;;;;;9.20;8.80;;;10.70;83.30;;;;;;4990675;28;20030;-84
2021/12/13 08:46:47;;;;;;;9.15;8.75;;;10.70;83.10;;;;;;4990155;28;20045;-83
2021/12/13 08:49:20;;;;;;;9.60;9.20;;;10.70;83.00;;;;;;4972336;28;20062;-84
2021/12/13 08:51:55;;;;;;;10.98;10.48;;;10.70;83.00;;;;;;4972929;28;20038;-84
2021/12/13 08:54:23;;;;;;;11.65;11.15;;;10.70;82.90;;;;;;5029877;28;20044;-83
2021/12/13 08:56:50;;;;;;;9.85;9.45;;;10.70;83.00;;;;;;5047985;28;20029;-83
2021/12/13 08:59:23;;;;;;;12.27;11.55;;;10.70;83.00;;;;;;5050364;28;20055;-81
2021/12/13 09:01:53;;;;;;;9.15;8.75;;;10.70;83.00;;;;;;5049675;28;20036;-81
2021/12/13 09:04:24;;;;;;;8.50;8.10;;;10.70;83.00;;;;;;5031993;28;20045;-83
2021/12/13 09:06:58;;;;;;;9.38;8.98;;;10.80;83.00;;;;;;5048568;28;20374;-83
2021/12/13 09:09:25;;;;;;;8.70;8.30;;;10.80;83.00;;;;;;5034227;28;20037;-85
2021/12/13 09:11:59;;;;;;;9.13;8.73;;;10.80;82.90;;;;;;5048444;28;20471;-86
2021/12/13 09:14:31;;;;;;;9.15;8.75;;;10.80;82.90;;;;;;5049442;28;20033;-85
2021/12/13 09:17:07;;;;;;;15.25;14.52;;;10.80;82.80;;;;;;5051420;28;20489;-86
2021/12/13 09:19:44;;;;;;;23.77;9.85;;;10.80;82.70;;;;;;5048566;28;20036;-85
2021/12/13 09:22:22;;;;;;;10.40;9.90;;;10.90;82.80;;;;;;5051951;28;20402;-80
2021/12/13 09:25:04;;;;;;;10.07;9.57;;;10.80;82.60;;;;;;5050961;28;20025;-80
2021/12/13 09:27:43;;;;;;;14.98;14.27;;;10.70;82.60;;;;;;5051893;28;20039;-80
2021/12/13 09:30:12;;;;;;;11.05;10.55;;;10.70;82.70;;;;;;5049611;28;20478;-80
2021/12/13 09:32:39;;;;;;;11.32;10.82;;;10.70;82.80;;;;;;5051643;28;20052;-81
2021/12/13 09:35:35;;;;;;;13.15;12.35;;;10.70;82.80;;;;;;5050513;28;20051;-81
2021/12/13 09:38:23;;;;;;;10.57;10.07;;;10.70;82.90;;;;;;5034364;28;20043;-79
2021/12/13 09:41:24;;;;;;;10.18;9.57;;;10.80;82.90;;;;;;5053541;28;20394;-79
2021/12/13 09:43:53;;;;;;;8.45;8.05;;;10.80;82.80;;;;;;4990872;28;20058;-79
2021/12/13 09:46:39;;;;;;;7.47;7.18;;;11.00;82.90;;;;;;4989715;28;20034;-79
2021/12/13 09:49:14;;;;;;;8.02;7.63;;;11.10;82.70;;;;;;4989868;28;20042;-78
2021/12/13 09:51:47;;;;;;;7.70;7.15;;;11.10;83.30;;;;;;4955523;28;20078;-79
2021/12/13 09:54:14;;;;;;;8.02;7.63;;;11.20;82.60;;;;;;4979878;28;20649;-79
2021/12/13 09:56:46;;;;;;;7.65;7.15;;;11.30;82.50;;;;;;4974259;28;20026;-78
2021/12/13 09:59:22;;;;;;;8.18;7.78;;;11.40;82.50;;;;;;4990284;28;20046;-78
2021/12/13 10:01:49;;;;;;;9.10;8.68;;;11.50;82.50;;;;;;4972204;28;20057;-78
2021/12/13 10:04:43;;;;;;;9.35;8.20;;;11.50;82.40;;;;;;4974034;28;20047;-78
2021/12/13 10:07:10;;;;;;;8.40;7.88;;;11.60;82.40;;;;;;4974575;28;20049;-78
2021/12/13 10:09:40;;;;;;;7.50;7.20;;;11.70;82.50;;;;;;4975501;28;20037;-79
2021/12/13 10:12:35;;;;;;;7.68;7.28;;;11.70;82.40;;;;;;4974237;28;20027;-81
2021/12/13 10:15:08;;;;;;;8.13;7.72;;;11.80;82.40;;;;;;4989306;28;20038;-79
2021/12/13 10:17:37;;;;;;;7.70;7.30;;;11.80;82.30;;;;;;4997054;28;20029;-80
2021/12/13 10:20:39;;;;;;;8.43;8.02;;;11.90;82.30;;;;;;5028950;28;20046;-78
2021/12/13 10:23:07;;;;;;;7.63;7.22;;;11.90;82.30;;;;;;5043996;28;20040;-79
2021/12/13 10:25:35;;;;;;;6.95;6.65;;;11.90;83.10;;;;;;5050047;28;20040;-80
2021/12/13 10:28:02;;;;;;;8.27;7.88;;;11.90;82.30;;;;;;5049659;28;20025;-81
2021/12/13 10:30:37;;;;;;;12.57;11.90;;;11.90;82.40;;;;;;5032716;28;20040;-79
2021/12/13 10:33:03;;;;;;;11.32;10.82;;;11.90;82.30;;;;;;5029406;28;20033;-80
2021/12/13 10:35:32;;;;;;;11.38;10.88;;;11.90;82.20;;;;;;5047510;28;20660;-81
2021/12/13 10:38:02;;;;;;;10.75;10.25;;;11.80;82.30;;;;;;5050483;28;20028;-82
2021/12/13 10:40:32;;;;;;;10.20;9.60;;;11.80;82.50;;;;;;5032930;28;20033;-81
2021/12/13 10:43:03;;;;;;;9.90;9.35;;;11.70;82.30;;;;;;5047364;28;20268;-79
2021/12/13 10:45:39;;;;;;;9.93;9.43;;;11.70;82.30;;;;;;5042061;28;20036;-81
2021/12/13 10:48:07;;;;;;;10.52;10.02;;;11.60;82.30;;;;;;5038593;28;20053;-80
2021/12/13 10:50:46;;;;;;;8.90;8.50;;;11.60;82.30;;;;;;5021803;28;20029;-80
2021/12/13 10:53:14;;;;;;;8.70;8.30;;;11.50;82.20;;;;;;5048190;28;20036;-80
2021/12/13 10:55:56;;;;;;;11.10;10.60;;;11.50;82.40;;;;;;5031998;28;20021;-80
2021/12/13 10:58:25;;;;;;;11.85;11.27;;;11.40;82.50;;;;;;5046814;28;20508;-79
2021/12/13 11:01:00;;;;;;;10.55;10.05;;;11.50;82.50;;;;;;5047078;28;20052;-80
2021/12/13 11:03:28;;;;;;;10.00;9.50;;;11.50;82.40;;;;;;5047642;28;20025;-80
2021/12/13 11:05:55;;;;;;;10.73;10.23;;;11.50;82.40;;;;;;5032112;28;20504;-79
2021/12/13 11:08:21;;;;;;;11.82;11.32;;;11.60;82.40;;;;;;5031028;28;20048;-79
2021/12/13 11:10:51;;;;;;;9.95;9.45;;;11.60;82.40;;;;;;5049824;28;20028;-80
2021/12/13 11:13:17;;;;;;;9.00;8.60;;;11.70;82.20;;;;;;5051991;28;20025;-79
2021/12/13 11:15:44;;;;;;;9.50;9.10;;;11.70;82.10;;;;;;5048804;28;20032;-79
2021/12/13 11:18:13;;;;;;;9.57;9.07;;;11.70;82.10;;;;;;5049634;28;20036;-79
2021/12/13 11:20:45;;;;;;;9.48;9.07;;;11.80;82.10;;;;;;5049746;28;20056;-78
2021/12/13 11:23:17;;;;;;;8.85;8.35;;;11.90;81.90;;;;;;5031009;28;20038;-80
2021/12/13 11:25:46;;;;;;;8.75;8.35;;;11.90;81.90;;;;;;5049899;28;20498;-80
2021/12/13 11:28:13;;;;;;;8.30;7.90;;;11.90;81.80;;;;;;5049170;28;20508;-80
2021/12/13 11:30:41;;;;;;;9.07;8.68;;;11.90;81.60;;;;;;5049942;28;20185;-80
2021/12/13 11:33:29;;;;;;;9.50;9.10;;;11.80;81.60;;;;;;5032050;28;20029;-81
2021/12/13 11:36:10;;;;;;;8.65;8.25;;;11.70;81.80;;;;;;5050763;28;20513;-81
2021/12/13 11:38:51;;;;;;;8.38;7.97;;;11.50;81.80;;;;;;5048651;28;20036;-80
2021/12/13 11:41:30;;;;;;;8.40;8.00;;;11.40;82.00;;;;;;5051962;28;20489;-79
2021/12/13 11:44:28;;;;;;;8.35;7.95;;;11.30;82.20;;;;;;5036681;28;20041;-81
2021/12/13 11:47:08;;;;;;;8.23;7.82;;;11.30;82.30;;;;;;5053222;28;20037;-81
2021/12/13 11:50:01;;;;;;;8.65;8.15;;;11.20;82.10;;;;;;5045141;28;20048;-81
2021/12/13 11:52:42;;;;;;;9.02;8.55;;;11.20;82.20;;;;;;4991768;28;20051;-80
2021/12/13 11:55:35;;;;;;;8.73;8.23;;;11.20;82.10;;;;;;4992381;28;20042;-81
2021/12/13 11:58:23;;;;;;;8.60;8.20;;;11.10;82.00;;;;;;4991112;28;20038;-81
2021/12/13 12:01:06;;;;;;;9.75;9.15;;;11.10;82.10;;;;;;4990957;28;20042;-80
2021/12/13 12:03:52;;;;;;;8.30;7.90;;;11.10;82.00;;;;;;4987263;28;20035;-81
2021/12/13 12:06:55;;;;;;;8.65;8.15;;;11.10;82.00;;;;;;4990891;28;20411;-82
2021/12/13 12:09:42;;;;;;;8.68;8.27;;;11.20;82.00;;;;;;4972868;28;20042;-80
2021/12/13 12:12:31;;;;;;;8.65;8.25;;;11.10;81.80;;;;;;4991451;28;20499;-80
2021/12/13 12:15:02;;;;;;;8.70;8.30;;;11.10;81.80;;;;;;4978545;28;20031;-78
2021/12/13 12:17:28;;;;;;;8.77;8.38;;;11.10;81.80;;;;;;4990699;28;20042;-80
2021/12/13 12:19:56;;;;;;;9.27;8.77;;;11.00;81.70;;;;;;4992120;28;20038;-79
2021/12/13 12:22:22;;;;;;;9.65;9.05;;;11.00;81.80;;;;;;4991405;28;20042;-79
2021/12/13 12:24:54;;;;;;;8.45;8.05;;;11.00;81.90;;;;;;4959570;28;20153;-79
2021/12/13 12:27:31;;;;;;;8.90;8.50;;;11.10;81.90;;;;;;4990375;28;20030;-80
2021/12/13 12:30:19;;;;;;;8.80;8.40;;;11.20;81.90;;;;;;5010627;28;20525;-79
2021/12/13 12:32:54;;;;;;;8.85;8.43;;;11.20;81.60;;;;;;5036605;28;20044;-79
2021/12/13 12:35:22;;;;;;;9.00;8.50;;;11.30;81.60;;;;;;5050239;28;20095;-79
2021/12/13 12:37:59;;;;;;;9.35;8.95;;;11.30;81.50;;;;;;5052045;28;20028;-78
2021/12/13 12:40:39;;;;;;;10.88;10.35;;;11.40;82.20;;;;;;5050625;28;20048;-80
2021/12/13 12:43:10;;;;;;;10.38;9.88;;;11.50;81.40;;;;;;5048524;28;20025;-80
2021/12/13 12:45:38;;;;;;;;;;;11.60;81.30;;;;;;5049542;28;20572;-80
2021/12/13 12:48:06;;;;;;;10.20;9.70;;;11.60;81.20;;;;;;5052446;28;19924;-80
2021/12/13 12:51:06;;;;;;;10.27;9.77;;;11.70;81.10;;;;;;5052611;28;20040;-80
2021/12/13 12:53:34;;;;;;;11.48;10.77;;;11.70;81.10;;;;;;5033937;28;20048;-80
2021/12/13 12:56:15;;;;;;;10.27;9.77;;;11.70;81.00;;;;;;5034803;28;20040;-80
2021/12/13 12:58:58;;;;;;;11.65;10.95;;;11.80;81.00;;;;;;5051092;28;20029;-80
2021/12/13 13:01:44;;;;;;;9.63;9.20;;;11.80;80.80;;;;;;5050361;28;20049;-80
2021/12/13 13:04:24;;;;;;;9.60;9.10;;;11.70;80.80;;;;;;5036475;28;20044;-80
2021/12/13 13:07:04;;;;;;;9.73;9.23;;;11.60;80.90;;;;;;5050813;28;20032;-80
2021/12/13 13:09:45;;;;;;;9.07;8.68;;;11.60;81.20;;;;;;5048164;28;20406;-80
2021/12/13 13:12:25;;;;;;;11.23;10.73;;;11.60;81.20;;;;;;5022878;28;20432;-80
2021/12/13 13:14:53;;;;;;;10.88;10.38;;;11.60;81.00;;;;;;5051012;28;20096;-80
2021/12/13 13:17:24;;;;;;;9.38;8.88;;;11.50;80.90;;;;;;5049992;28;20029;-79
2021/12/13 13:19:50;;;;;;;9.05;8.55;;;11.50;81.00;;;;;;5050796;28;20025;-80
2021/12/13 13:22:26;;;;;;;8.60;8.20;;;11.40;81.10;;;;;;5050727;28;20033;-80
2021/12/13 13:24:56;;;;;;;8.77;8.38;;;11.40;81.20;;;;;;5033586;28;20036;-80
2021/12/13 13:27:25;;;;;;;9.15;8.75;;;11.40;81.20;;;;;;5050402;28;20020;-79
2021/12/13 13:29:51;;;;;;;10.30;9.80;;;11.50;81.20;;;;;;5050879;28;20036;-79
2021/12/13 13:32:17;;;;;;;8.43;7.82;;;11.50;81.10;;;;;;5050197;28;20029;-79
2021/12/13 13:34:48;;;;;;;9.60;9.20;;;11.50;81.00;;;;;;5050706;28;20044;-79